createdAt,value
2023-01-01T00:00:02.260Z,97529.47
2023-01-01T00:02:07.319Z,97541.16
2023-01-01T00:04:14.371Z,97540.34
2023-01-01T00:06:17.484Z,97536.03
2023-01-01T00:08:20.426Z,97528.03
2023-01-01T00:10:28.616Z,97532.56
2023-01-01T00:12:32.741Z,97530.09
2023-01-01T00:14:36.124Z,97527.22
2023-01-01T00:16:39.102Z,97535.22
2023-01-01T00:18:43.492Z,97516.16
2023-01-01T00:20:46.401Z,97537.25
2023-01-01T00:22:56.932Z,97532.94
2023-01-01T00:25:00.090Z,97536.25
2023-01-01T00:27:03.233Z,97529.88
2023-01-01T00:29:06.632Z,97525.19
2023-01-01T00:31:10.293Z,97518.63
2023-01-01T00:33:13.221Z,97536.25
2023-01-01T00:35:19.158Z,97518.63
2023-01-01T00:37:22.226Z,97521.91
2023-01-01T00:39:25.233Z,97520.28
2023-01-01T00:41:28.219Z,97522.72
2023-01-01T00:43:31.408Z,97522.94
2023-01-01T00:45:34.736Z,97516.97
2023-01-01T00:47:37.816Z,97517.16
2023-01-01T00:49:40.810Z,97522.69
2023-01-01T00:51:45.201Z,97516.78
2023-01-01T00:53:48.175Z,97511.63
2023-01-01T00:55:52.273Z,97510.00
2023-01-01T00:57:55.154Z,97509.19
2023-01-01T00:59:58.356Z,97506.53
2023-01-01T01:02:01.478Z,97510.00
2023-01-01T01:04:06.635Z,97503.66
2023-01-01T01:06:12.740Z,97502.00
2023-01-01T01:08:17.333Z,97504.69
2023-01-01T01:10:21.564Z,97514.94
2023-01-01T01:12:24.547Z,97519.44
2023-01-01T01:14:27.719Z,97518.63
2023-01-01T01:16:33.099Z,97518.63
2023-01-01T01:18:36.122Z,97517.59
2023-01-01T01:20:39.435Z,97517.59
2023-01-01T01:22:42.726Z,97516.56
2023-01-01T01:24:47.386Z,97515.56
2023-01-01T01:26:50.444Z,97520.06
2023-01-01T01:28:54.393Z,97521.28
2023-01-01T01:31:00.526Z,97519.44
2023-01-01T01:33:03.693Z,97510.00
2023-01-01T01:35:07.488Z,97519.00
2023-01-01T01:37:10.644Z,97530.47
2023-01-01T01:39:13.855Z,97522.69
2023-01-01T01:41:28.007Z,97525.56
2023-01-01T01:43:51.260Z,97530.06
2023-01-01T01:45:56.942Z,97530.06
2023-01-01T01:48:00.939Z,97527.41
2023-01-01T01:50:09.530Z,97525.16
2023-01-01T01:52:13.093Z,97522.50
2023-01-01T01:54:20.766Z,97527.22
2023-01-01T01:56:32.836Z,97534.16
2023-01-01T01:58:36.403Z,97532.53
2023-01-01T02:00:39.321Z,97536.19
2023-01-01T02:02:49.598Z,97537.84
2023-01-01T02:04:54.237Z,97543.19
2023-01-01T02:06:57.349Z,97551.97
2023-01-01T02:09:03.306Z,97551.97
2023-01-01T02:11:07.309Z,97549.69
2023-01-01T02:13:12.555Z,97562.19
2023-01-01T02:15:15.474Z,97562.78
2023-01-01T02:17:24.321Z,97565.66
2023-01-01T02:19:44.815Z,97568.53
2023-01-01T02:22:00.756Z,97575.50
2023-01-01T02:24:19.080Z,97570.97
2023-01-01T02:26:47.159Z,97579.63
2023-01-01T02:28:58.621Z,97577.78
2023-01-01T02:31:03.040Z,97570.16
2023-01-01T02:33:12.097Z,97577.53
2023-01-01T02:35:38.585Z,97575.91
2023-01-01T02:37:41.885Z,97578.56
2023-01-01T02:39:49.931Z,97571.59
2023-01-01T02:41:56.269Z,97582.03
2023-01-01T02:46:07.006Z,97586.53
2023-01-01T02:48:44.436Z,97587.38
2023-01-01T02:50:48.233Z,97584.50
2023-01-01T02:53:04.733Z,97588.78
2023-01-01T02:55:17.715Z,97587.97
2023-01-01T02:57:28.580Z,97589.63
2023-01-01T02:59:54.937Z,97597.81
2023-01-01T03:02:04.095Z,97599.66
2023-01-01T03:04:12.992Z,97591.66
2023-01-01T03:06:24.664Z,97602.31
2023-01-01T03:08:36.089Z,97608.44
2023-01-01T03:10:46.991Z,97595.16
2023-01-01T03:12:55.721Z,97596.78
2023-01-01T03:15:01.592Z,97604.75
2023-01-01T03:17:08.570Z,97592.06
2023-01-01T03:19:18.841Z,97593.91
2023-01-01T03:21:23.153Z,97598.41
2023-01-01T03:23:32.785Z,97606.41
2023-01-01T03:25:40.240Z,97603.13
2023-01-01T03:27:45.613Z,97603.34
2023-01-01T03:29:52.565Z,97605.78
2023-01-01T03:31:59.058Z,97605.59
2023-01-01T03:34:06.783Z,97602.09
2023-01-01T03:36:14.309Z,97611.09
2023-01-01T03:38:22.502Z,97606.59
2023-01-01T03:40:27.319Z,97608.25
2023-01-01T03:42:36.304Z,97601.09
2023-01-01T03:44:48.600Z,97603.34
2023-01-01T03:46:51.995Z,97611.09
2023-01-01T03:49:03.751Z,97614.38
2023-01-01T03:51:18.345Z,97619.28
2023-01-01T03:53:37.354Z,97615.63
2023-01-01T10:21:07.584Z,97622.38
2023-01-01T10:23:17.534Z,97621.00
2023-01-01T10:25:23.678Z,97610.13
2023-01-01T10:27:34.965Z,97613.53
2023-01-01T10:29:42.176Z,97608.06
2023-01-01T10:31:47.318Z,97612.50
2023-01-01T10:33:50.159Z,97610.28
2023-01-01T10:35:56.774Z,97603.13
2023-01-01T10:38:02.087Z,97606.66
2023-01-01T10:40:16.409Z,97597.22
2023-01-01T10:42:19.276Z,97598.28
2023-01-01T10:44:29.930Z,97591.31
2023-01-01T10:46:32.759Z,97592.38
2023-01-01T10:48:36.066Z,97587.47
2023-01-01T10:50:44.207Z,97590.53
2023-01-01T10:52:57.340Z,97586.47
2023-01-01T10:55:01.945Z,97573.75
2023-01-01T10:57:16.141Z,97582.56
2023-01-01T10:59:38.771Z,97581.34
2023-01-01T11:01:41.515Z,97577.44
2023-01-01T11:04:01.216Z,97563.75
2023-01-01T11:06:07.867Z,97565.38
2023-01-01T11:08:19.779Z,97559.03
2023-01-01T11:10:26.183Z,97560.44
2023-01-01T11:13:03.759Z,97558.59
2023-01-01T11:14:58.342Z,97560.25
2023-01-01T11:17:01.716Z,97553.88
2023-01-01T11:19:06.537Z,97537.91
2023-01-01T11:21:09.690Z,97546.50
2023-01-01T11:23:21.367Z,97545.47
2023-01-01T11:25:28.609Z,97544.47
2023-01-01T11:27:31.288Z,97541.59
2023-01-01T11:29:33.950Z,97538.13
2023-01-01T11:31:39.926Z,97536.28
2023-01-01T11:33:47.700Z,97531.34
2023-01-01T11:35:53.940Z,97527.66
2023-01-01T11:37:58.045Z,97522.94
2023-01-01T11:40:02.335Z,97520.06
2023-01-01T11:42:08.344Z,97510.44
2023-01-01T11:44:12.869Z,97511.09
2023-01-01T11:46:24.668Z,97506.34
2023-01-01T11:48:30.688Z,97496.53
2023-01-01T11:50:35.744Z,97498.16
2023-01-01T11:52:40.819Z,97494.47
2023-01-01T11:54:45.138Z,97498.75
2023-01-01T11:56:51.588Z,97493.22
2023-01-01T11:58:58.961Z,97490.94
2023-01-01T12:01:06.070Z,97488.28
2023-01-01T12:03:20.915Z,97490.34
2023-01-01T12:05:26.428Z,97493.84
2023-01-01T12:07:35.559Z,97484.81
2023-01-01T12:09:46.095Z,97483.78
2023-01-01T12:11:52.700Z,97477.41
2023-01-01T12:14:03.072Z,97478.06
2023-01-01T12:16:12.233Z,97470.69
2023-01-01T12:18:20.444Z,97465.38
2023-01-01T12:20:28.044Z,97460.63
2023-01-01T12:22:30.703Z,97458.78
2023-01-01T12:24:35.549Z,97465.75
2023-01-01T12:26:53.495Z,97467.41
2023-01-01T12:29:40.099Z,97460.00
2023-01-01T12:31:51.204Z,97458.75
2023-01-01T12:34:11.274Z,97448.91
2023-01-01T12:36:25.603Z,97446.66
2023-01-01T12:38:50.017Z,97441.72
2023-01-01T12:41:01.270Z,97444.78
2023-01-01T12:43:05.180Z,97438.41
2023-01-01T12:45:45.870Z,97438.22
2023-01-01T12:47:58.635Z,97426.31
2023-01-01T12:50:10.586Z,97425.06
2023-01-01T12:52:27.402Z,97419.75
2023-01-01T12:55:26.661Z,97423.81
2023-01-01T12:57:33.187Z,97424.63
2023-01-01T12:59:39.754Z,97425.47
2023-01-01T13:01:44.834Z,97426.28
2023-01-01T13:03:52.474Z,97416.84
2023-01-01T13:05:57.800Z,97423.81
2023-01-01T13:08:04.496Z,97420.13
2023-01-01T13:10:13.870Z,97405.97
2023-01-01T13:12:19.914Z,97416.44
2023-01-01T13:14:22.784Z,97415.44
2023-01-01T13:16:37.740Z,97411.91
2023-01-01T13:18:41.773Z,97414.41
2023-01-01T13:20:46.421Z,97407.00
2023-01-01T13:22:49.115Z,97402.47
2023-01-01T13:25:05.535Z,97407.59
2023-01-01T13:27:13.475Z,97398.34
2023-01-01T13:29:35.677Z,97405.53
2023-01-01T13:32:04.257Z,97397.75
2023-01-01T13:34:37.675Z,97411.91
2023-01-01T13:36:40.371Z,97404.50
2023-01-01T13:38:46.780Z,97409.41
2023-01-01T13:40:53.343Z,97402.03
2023-01-01T13:43:07.166Z,97406.31
2023-01-01T13:45:30.340Z,97406.09
2023-01-01T13:47:52.383Z,97409.59
2023-01-01T13:50:06.366Z,97404.25
2023-01-01T13:52:39.468Z,97399.94
2023-01-01T13:55:22.909Z,97401.00
2023-01-01T13:57:45.992Z,97399.94
2023-01-01T13:59:58.705Z,97403.22
2023-01-01T14:02:20.966Z,97401.59
2023-01-01T14:04:40.668Z,97407.53
2023-01-01T14:06:51.554Z,97398.91
2023-01-01T14:09:02.767Z,97405.66
2023-01-01T14:11:20.319Z,97401.97
2023-01-01T14:13:29.824Z,97407.31
2023-01-01T14:15:35.754Z,97409.75
2023-01-01T14:17:38.518Z,97406.06
2023-01-01T14:19:42.705Z,97400.72
2023-01-01T14:21:47.175Z,97412.03
2023-01-01T14:23:52.675Z,97410.97
2023-01-01T14:25:55.703Z,97398.69
2023-01-01T14:27:59.943Z,97407.28
2023-01-01T14:30:02.695Z,97413.66
2023-01-01T14:32:16.073Z,97420.63
2023-01-01T14:34:25.494Z,97415.06
2023-01-01T14:36:30.639Z,97415.06
2023-01-01T14:38:36.226Z,97421.22
2023-01-01T14:40:39.357Z,97423.06
2023-01-01T14:42:42.337Z,97416.69
2023-01-01T14:44:45.415Z,97417.94
2023-01-01T14:46:50.393Z,97418.97
2023-01-01T14:48:56.205Z,97423.88
2023-01-01T14:50:59.431Z,97417.50
2023-01-01T14:53:06.120Z,97430.84
2023-01-01T14:55:19.116Z,97435.16
2023-01-01T14:57:26.630Z,97443.16
2023-01-01T14:59:31.919Z,97448.50
2023-01-01T15:01:34.951Z,97433.91
2023-01-01T15:03:37.767Z,97434.94
2023-01-01T15:05:41.568Z,97438.63
2023-01-01T15:07:44.337Z,97433.91
2023-01-01T15:09:47.029Z,97444.56
2023-01-01T15:11:54.392Z,97441.72
2023-01-01T15:13:59.338Z,97444.56
2023-01-01T15:16:16.939Z,97439.25
2023-01-01T15:18:43.000Z,97448.06
2023-01-01T15:20:54.281Z,97450.72
2023-01-01T15:22:57.392Z,97443.75
2023-01-01T15:25:01.042Z,97446.66
2023-01-01T15:27:08.239Z,97463.69
2023-01-01T15:29:15.302Z,97461.25
2023-01-01T15:31:18.150Z,97457.53
2023-01-01T15:33:21.820Z,97450.56
2023-01-01T15:35:31.890Z,97460.63
2023-01-01T15:37:38.092Z,97463.53
2023-01-01T15:39:49.484Z,97466.41
2023-01-01T15:41:53.616Z,97468.44
2023-01-01T15:44:10.188Z,97461.47
2023-01-01T15:46:21.497Z,97456.13
2023-01-01T15:48:37.425Z,97458.59
2023-01-01T15:50:57.444Z,97461.06
2023-01-01T15:53:02.326Z,97469.88
2023-01-01T15:55:06.133Z,97463.72
2023-01-01T15:57:19.180Z,97464.75
2023-01-01T15:59:30.285Z,97470.50
2023-01-01T16:01:36.398Z,97466.41
2023-01-01T16:03:41.228Z,97474.63
2023-01-01T16:05:47.694Z,97469.31
2023-01-01T16:07:58.737Z,97480.19
2023-01-01T16:10:01.446Z,97477.53
2023-01-01T16:12:04.345Z,97475.06
2023-01-01T16:14:07.019Z,97482.25
2023-01-01T16:16:27.845Z,97473.41
2023-01-01T16:18:33.905Z,97478.75
2023-01-01T16:20:36.544Z,97475.47
2023-01-01T16:22:39.229Z,97482.44
2023-01-01T16:24:43.621Z,97473.84
2023-01-01T16:26:46.824Z,97468.50
2023-01-01T16:28:49.527Z,97474.66
2023-01-01T16:30:52.346Z,97483.47
2023-01-01T16:32:56.796Z,97475.91
2023-01-01T16:34:59.528Z,97475.09
2023-01-01T16:37:02.277Z,97472.63
2023-01-01T16:39:05.088Z,97466.25
2023-01-01T16:41:07.796Z,97467.28
2023-01-01T16:43:16.487Z,97470.56
2023-01-01T16:45:19.462Z,97462.34
2023-01-01T16:47:23.034Z,97466.88
2023-01-01T16:49:27.111Z,97463.38
2023-01-01T16:51:31.154Z,97473.44
2023-01-01T16:53:34.190Z,97461.97
2023-01-01T16:55:36.863Z,97461.97
2023-01-01T16:57:40.005Z,97457.44
2023-01-01T16:59:42.855Z,97463.59
2023-01-01T17:01:48.122Z,97473.22
2023-01-01T17:03:51.660Z,97470.78
2023-01-01T17:05:56.113Z,97475.91
2023-01-01T17:07:58.979Z,97474.25
2023-01-01T17:10:04.284Z,97467.28
2023-01-01T17:12:07.638Z,97464.63
2023-01-01T17:14:11.223Z,97463.59
2023-01-01T17:16:21.140Z,97464.41
2023-01-01T17:18:55.233Z,97467.28
2023-01-01T17:20:51.368Z,97478.78
2023-01-01T17:22:57.775Z,97469.16
2023-01-01T17:25:00.657Z,97477.97
2023-01-01T17:27:03.555Z,97467.28
2023-01-01T17:29:07.497Z,97471.00
2023-01-01T17:31:12.821Z,97473.66
2023-01-01T17:33:15.775Z,97468.13
2023-01-01T17:35:18.832Z,97476.31
2023-01-01T17:37:21.587Z,97475.50
2023-01-01T17:39:25.812Z,97469.34
2023-01-01T17:41:33.321Z,97465.06
2023-01-01T17:43:40.476Z,97461.56
2023-01-01T17:45:43.293Z,97461.56
2023-01-01T17:47:51.254Z,97468.75
2023-01-01T17:49:56.321Z,97461.16
2023-01-01T17:52:01.210Z,97474.50
2023-01-01T17:54:08.625Z,97471.81
2023-01-01T17:56:15.544Z,97471.22
2023-01-01T17:58:18.439Z,97470.19
2023-01-01T18:00:21.532Z,97475.72
2023-01-01T18:02:24.450Z,97475.94
2023-01-01T18:04:27.545Z,97468.16
2023-01-01T18:06:34.065Z,97478.00
2023-01-01T18:08:41.797Z,97465.72
2023-01-01T18:10:44.547Z,97465.72
2023-01-01T18:12:48.563Z,97464.06
2023-01-01T18:14:51.319Z,97465.91
2023-01-01T18:16:54.028Z,97467.75
2023-01-01T18:19:00.971Z,97466.09
2023-01-01T18:21:04.483Z,97460.78
2023-01-01T18:23:07.264Z,97455.88
2023-01-01T18:25:10.468Z,97460.38
2023-01-01T18:27:13.150Z,97460.38
2023-01-01T18:29:17.297Z,97457.94
2023-01-01T18:31:20.475Z,97447.28
2023-01-01T18:33:23.498Z,97456.31
2023-01-01T18:35:26.313Z,97456.31
2023-01-01T18:37:28.969Z,97449.34
2023-01-01T18:39:35.050Z,97449.34
2023-01-01T18:41:55.207Z,97450.38
2023-01-01T18:43:59.894Z,97447.88
2023-01-01T18:46:09.671Z,97447.06
2023-01-01T18:48:14.126Z,97449.72
2023-01-01T18:50:23.635Z,97448.09
2023-01-01T18:52:28.256Z,97443.59
2023-01-01T18:54:30.964Z,97451.78
2023-01-01T18:56:33.595Z,97446.47
2023-01-01T18:58:36.365Z,97453.44
2023-01-01T19:00:39.552Z,97445.44
2023-01-01T19:02:49.043Z,97446.25
2023-01-01T19:04:51.977Z,97444.41
2023-01-01T19:06:54.652Z,97441.13
2023-01-01T19:09:04.090Z,97440.31
2023-01-01T19:11:13.454Z,97444.00
2023-01-01T19:13:22.261Z,97437.66
2023-01-01T19:15:25.000Z,97438.47
2023-01-01T19:17:27.701Z,97445.84
2023-01-01T19:19:39.804Z,97439.72
2023-01-01T19:21:47.879Z,97446.88
2023-01-01T19:23:55.349Z,97433.56
2023-01-01T19:26:00.137Z,97446.06
2023-01-01T19:28:26.796Z,97448.94
2023-01-01T19:30:29.547Z,97440.94
2023-01-01T19:32:32.312Z,97442.81
2023-01-01T19:34:38.487Z,97448.34
2023-01-01T19:36:41.375Z,97451.22
2023-01-01T19:38:44.685Z,97446.06
2023-01-01T19:40:47.370Z,97443.63
2023-01-01T19:42:50.102Z,97443.00
2023-01-01T19:44:52.861Z,97435.00
2023-01-01T19:47:00.465Z,97437.66
2023-01-01T19:49:03.626Z,97437.06
2023-01-01T19:51:08.052Z,97439.50
2023-01-01T19:53:10.925Z,97442.38
2023-01-01T19:55:13.902Z,97429.28
2023-01-01T19:57:18.821Z,97431.94
2023-01-01T19:59:24.184Z,97434.59
2023-01-01T20:01:29.303Z,97436.25
2023-01-01T20:05:55.485Z,97431.13
2023-01-01T20:07:59.742Z,97422.31
2023-01-01T20:10:02.789Z,97430.31
2023-01-01T20:12:05.947Z,97425.78
2023-01-01T20:14:10.662Z,97419.63
2023-01-01T20:16:13.686Z,97420.69
2023-01-01T20:18:16.661Z,97417.19
2023-01-01T20:20:19.860Z,97422.69
2023-01-01T20:22:24.537Z,97425.19
2023-01-01T20:24:28.717Z,97418.81
2023-01-01T20:26:31.597Z,97409.38
2023-01-01T20:28:54.485Z,97411.84
2023-01-01T20:30:57.382Z,97418.00
2023-01-01T20:33:00.086Z,97403.03
2023-01-01T20:35:02.943Z,97400.56
2023-01-01T20:37:23.217Z,97402.63
2023-01-01T20:39:26.786Z,97401.81
2023-01-01T20:41:30.976Z,97394.41
2023-01-01T20:43:37.854Z,97387.03
2023-01-01T20:45:40.681Z,97386.22
2023-01-01T20:47:43.650Z,97390.72
2023-01-01T20:49:47.755Z,97392.34
2023-01-01T20:51:52.203Z,97389.69
2023-01-01T20:53:55.573Z,97384.56
2023-01-01T20:55:59.842Z,97389.09
2023-01-01T20:58:03.880Z,97389.09
2023-01-01T21:00:08.259Z,97387.25
2023-01-01T21:02:12.632Z,97392.34
2023-01-01T21:04:15.581Z,97390.53
2023-01-01T21:06:23.800Z,97386.22
2023-01-01T21:08:27.224Z,97390.72
2023-01-01T21:10:30.461Z,97389.69
2023-01-01T21:12:33.341Z,97386.22
2023-01-01T21:14:40.179Z,97387.03
2023-01-01T21:16:44.630Z,97394.22
2023-01-01T21:18:48.889Z,97396.06
2023-01-01T21:20:51.689Z,97393.38
2023-01-01T21:22:58.828Z,97391.53
2023-01-01T21:25:48.698Z,97395.25
2023-01-01T21:27:35.088Z,97395.44
2023-01-01T21:29:47.779Z,97402.41
2023-01-01T21:31:53.709Z,97399.16
2023-01-01T21:33:56.429Z,97404.47
2023-01-01T21:36:02.979Z,97396.91
2023-01-01T21:38:16.942Z,97391.38
2023-01-01T21:40:39.644Z,97390.97
2023-01-01T21:42:42.314Z,97400.59
2023-01-01T21:44:52.931Z,97396.09
2023-01-01T21:47:01.852Z,97396.31
2023-01-01T21:49:14.345Z,97398.16
2023-01-01T21:51:22.444Z,97394.25
2023-01-01T21:53:28.959Z,97391.38
2023-01-01T21:55:52.032Z,97394.84
2023-01-01T21:58:21.049Z,97402.25
2023-01-01T22:00:25.801Z,97396.91
2023-01-01T22:02:38.001Z,97392.41
2023-01-01T22:04:43.474Z,97385.22
2023-01-01T22:06:48.578Z,97391.38
2023-01-01T22:08:51.330Z,97394.41
2023-01-01T22:10:54.109Z,97396.06
2023-01-01T22:12:59.962Z,97390.72
2023-01-01T22:15:24.353Z,97396.06
2023-01-01T22:17:36.740Z,97388.06
2023-01-01T22:19:39.928Z,97404.69
2023-01-01T22:21:42.921Z,97403.88
2023-01-01T22:23:47.423Z,97395.25
2023-01-01T22:25:50.420Z,97396.06
2023-01-01T22:27:53.122Z,97400.56
2023-01-01T22:29:56.842Z,97405.69
2023-01-01T22:32:03.379Z,97394.84
2023-01-01T22:34:17.666Z,97401.00
2023-01-01T22:36:26.092Z,97401.00
2023-01-01T22:38:34.086Z,97400.16
2023-01-01T22:40:39.029Z,97396.47
2023-01-01T22:42:41.777Z,97397.91
2023-01-01T22:44:45.728Z,97395.22
2023-01-01T22:46:48.490Z,97395.84
2023-01-01T22:48:57.456Z,97389.47
2023-01-01T22:51:06.251Z,97384.16
2023-01-01T22:53:08.883Z,97392.13
2023-01-01T22:55:11.670Z,97394.00
2023-01-01T22:57:14.430Z,97392.34
2023-01-01T22:59:17.197Z,97385.00
2023-01-01T23:01:20.201Z,97391.13
2023-01-01T23:03:22.986Z,97395.66
2023-01-01T23:05:25.695Z,97383.31
2023-01-01T23:07:30.320Z,97389.47
2023-01-01T23:09:34.111Z,97385.19
2023-01-01T23:11:36.881Z,97386.81
2023-01-01T23:13:56.886Z,97383.97
2023-01-01T23:16:02.363Z,97382.13
2023-01-01T23:18:05.279Z,97381.28
2023-01-01T23:20:09.200Z,97373.47
2023-01-01T23:22:11.954Z,97376.16
2023-01-01T23:24:20.551Z,97371.03
2023-01-01T23:26:23.438Z,97369.00
2023-01-01T23:28:27.291Z,97364.50
2023-01-01T23:30:30.063Z,97367.75
2023-01-01T23:32:33.155Z,97364.50
2023-01-01T23:34:35.902Z,97360.59
2023-01-01T23:36:40.055Z,97365.09
2023-01-01T23:38:43.119Z,97357.09
2023-01-01T23:40:47.357Z,97353.44
2023-01-01T23:42:50.051Z,97356.09
2023-01-01T23:44:52.816Z,97348.09
2023-01-01T23:46:56.497Z,97353.44
2023-01-01T23:48:59.220Z,97356.69
2023-01-01T23:51:02.021Z,97347.88
2023-01-01T23:53:04.756Z,97344.41
2023-01-01T23:55:08.542Z,97354.63
2023-01-01T23:57:14.146Z,97341.53
2023-01-01T23:59:16.891Z,97342.56
